createdAt,value
2022-11-24T00:01:11.263Z,2.50
2022-11-24T00:06:15.779Z,2.67
2022-11-24T00:11:19.882Z,2.40
2022-11-24T00:16:24.298Z,2.10
2022-11-24T00:21:28.956Z,2.30
2022-11-24T00:26:33.196Z,2.60
2022-11-24T00:31:37.439Z,2.73
2022-11-24T00:36:39.476Z,2.03
2022-11-24T00:41:42.176Z,2.17
2022-11-24T00:46:43.931Z,2.40
2022-11-24T00:51:46.352Z,1.90
2022-11-24T00:56:48.207Z,2.17
2022-11-24T01:01:49.947Z,2.40
2022-11-24T01:06:51.479Z,2.17
2022-11-24T01:12:01.986Z,2.03
2022-11-24T01:17:03.592Z,2.30
2022-11-24T01:22:05.099Z,2.27
2022-11-24T01:27:06.720Z,2.00
2022-11-24T01:32:08.217Z,2.37
2022-11-24T01:37:09.885Z,1.93
2022-11-24T01:42:11.384Z,2.40
2022-11-24T01:47:12.945Z,1.87
2022-11-24T01:52:40.316Z,2.30
2022-11-24T01:57:45.670Z,2.20
2022-11-24T02:02:47.325Z,2.43
2022-11-24T02:07:49.413Z,2.17
2022-11-24T02:12:55.041Z,2.30
2022-11-24T02:17:58.738Z,2.20
2022-11-24T02:23:18.018Z,1.90
2022-11-24T02:28:21.830Z,1.90
2022-11-24T02:33:25.263Z,2.87
2022-11-24T02:38:33.367Z,2.30
2022-11-24T02:43:47.773Z,2.33
2022-11-24T02:48:49.598Z,2.23
2022-11-24T02:53:51.185Z,2.63
2022-11-24T02:58:52.969Z,1.97
2022-11-24T03:03:54.572Z,1.80
2022-11-24T03:08:56.124Z,2.53
2022-11-24T03:13:58.884Z,1.90
2022-11-24T03:19:00.823Z,1.80
2022-11-24T03:24:02.636Z,2.70
2022-11-24T03:29:04.229Z,2.13
2022-11-24T03:34:05.767Z,2.37
2022-11-24T03:39:07.437Z,2.50
2022-11-24T03:44:09.064Z,2.67
2022-11-24T03:49:10.616Z,2.00
2022-11-24T03:54:12.399Z,2.07
2022-11-24T03:59:13.921Z,2.50
2022-11-24T04:04:15.796Z,2.57
2022-11-24T04:09:17.421Z,2.30
2022-11-24T04:14:19.453Z,2.13
2022-11-24T04:19:20.983Z,2.43
2022-11-24T04:24:22.505Z,2.23
2022-11-24T04:29:24.200Z,2.07
2022-11-24T04:34:25.718Z,2.40
2022-11-24T04:39:28.708Z,2.30
2022-11-24T04:44:30.582Z,2.37
2022-11-24T04:49:32.146Z,2.53
2022-11-24T04:54:33.964Z,2.23
2022-11-24T04:59:35.571Z,2.80
2022-11-24T05:04:37.721Z,2.23
2022-11-24T05:09:59.885Z,2.20
2022-11-24T05:15:02.921Z,1.83
2022-11-24T05:20:06.278Z,2.03
2022-11-24T05:25:08.254Z,2.20
2022-11-24T05:30:10.227Z,2.37
2022-11-24T05:35:11.829Z,2.00
2022-11-24T05:40:14.214Z,2.10
2022-11-24T05:45:17.993Z,2.40
2022-11-24T05:50:21.154Z,1.70
2022-11-24T05:55:23.251Z,1.73
2022-11-24T06:00:24.807Z,1.87
2022-11-24T06:05:27.585Z,1.80
2022-11-24T06:10:29.372Z,2.07
2022-11-24T06:15:30.953Z,1.97
2022-11-24T06:20:33.189Z,2.00
2022-11-24T06:25:34.891Z,2.00
2022-11-24T06:30:36.401Z,2.47
2022-11-24T06:35:39.346Z,1.80
2022-11-24T06:40:40.881Z,1.90
2022-11-24T06:45:42.595Z,1.60
2022-11-24T06:50:44.664Z,2.00
2022-11-24T06:55:47.203Z,1.70
2022-11-24T07:00:48.902Z,1.87
2022-11-24T07:05:56.263Z,1.60
2022-11-24T07:11:04.316Z,1.83
2022-11-24T07:16:21.165Z,1.60
2022-11-24T07:21:23.973Z,1.70
2022-11-24T07:26:26.004Z,1.67
2022-11-24T07:31:27.792Z,1.70
2022-11-24T07:36:29.430Z,1.87
2022-11-24T07:41:31.024Z,1.83
2022-11-24T07:46:32.826Z,1.30
2022-11-24T07:51:34.507Z,1.60
2022-11-24T07:56:36.015Z,2.10
2022-11-24T08:01:37.587Z,1.60
2022-11-24T08:06:43.274Z,2.30
2022-11-24T08:11:48.859Z,1.83
2022-11-24T08:16:50.718Z,1.93
2022-11-24T08:21:52.517Z,1.60
2022-11-24T08:26:54.278Z,2.03
2022-11-24T08:31:58.889Z,1.53
2022-11-24T08:37:00.521Z,1.30
2022-11-24T08:42:02.101Z,1.63
2022-11-24T08:47:03.740Z,1.50
2022-11-24T08:52:05.370Z,1.50
2022-11-24T08:57:07.246Z,1.40
2022-11-24T09:02:14.622Z,1.53
2022-11-24T09:07:16.267Z,1.50
2022-11-24T09:12:18.042Z,1.67
2022-11-24T09:17:19.610Z,1.40
2022-11-24T09:22:21.582Z,1.37
2022-11-24T09:27:23.344Z,1.37
2022-11-24T09:32:24.853Z,1.50
2022-11-24T09:37:29.766Z,1.70
2022-11-24T09:42:53.291Z,1.60
2022-11-24T09:48:02.557Z,1.70
2022-11-24T09:53:16.022Z,2.10
2022-11-24T09:58:17.551Z,1.60
2022-11-24T10:03:33.264Z,1.93
2022-11-24T10:08:43.620Z,1.40
2022-11-24T10:14:23.825Z,1.70
2022-11-24T10:19:45.338Z,1.67
2022-11-24T10:25:32.135Z,1.60
2022-11-24T10:30:33.883Z,1.40
2022-11-24T10:35:40.380Z,1.83
2022-11-24T10:40:59.167Z,1.60
2022-11-24T10:46:12.530Z,1.70
2022-11-24T10:51:42.801Z,1.60
2022-11-24T10:56:46.004Z,1.50
2022-11-24T11:01:47.792Z,1.50
2022-11-24T11:06:49.923Z,1.73
2022-11-24T11:11:53.601Z,1.73
2022-11-24T11:16:56.543Z,1.40
2022-11-24T11:22:03.780Z,1.60
2022-11-24T11:27:25.053Z,1.80
2022-11-24T11:37:49.841Z,1.43
2022-11-24T11:43:04.085Z,1.47
2022-11-24T11:48:20.519Z,1.50
2022-11-24T11:53:33.960Z,1.40
2022-11-24T11:58:47.524Z,1.60
2022-11-24T12:04:10.526Z,1.20
2022-11-24T12:09:33.923Z,1.90
2022-11-24T12:15:10.583Z,1.90
2022-11-24T12:20:57.580Z,1.50
2022-11-24T12:26:21.766Z,1.40
2022-11-24T12:31:29.922Z,1.70
2022-11-24T12:36:59.686Z,2.30
2022-11-24T12:42:10.496Z,1.63
2022-11-24T12:47:17.766Z,1.70
2022-11-24T12:53:12.342Z,1.77
2022-11-24T12:58:45.683Z,1.30
2022-11-24T13:04:02.970Z,1.63
2022-11-24T13:09:09.273Z,1.80
2022-11-24T13:14:23.365Z,1.60
2022-11-24T13:19:26.576Z,1.77
2022-11-24T13:24:34.622Z,1.63
2022-11-24T13:29:37.568Z,1.27
2022-11-24T13:34:39.270Z,1.67
2022-11-24T13:39:55.287Z,1.77
2022-11-24T13:45:01.702Z,1.80
2022-11-24T13:50:06.589Z,1.60
2022-11-24T13:55:15.669Z,1.80
2022-11-24T14:00:26.588Z,1.20
2022-11-24T14:05:38.473Z,1.27
2022-11-24T14:10:41.348Z,1.47
2022-11-24T14:15:43.872Z,1.57
2022-11-24T14:20:45.527Z,1.70
2022-11-24T14:25:49.279Z,1.40
2022-11-24T14:30:51.334Z,1.40
2022-11-24T14:35:52.991Z,1.87
2022-11-24T14:40:55.683Z,1.60
2022-11-24T14:46:01.592Z,1.50
2022-11-24T14:51:22.308Z,1.23
2022-11-24T14:56:32.324Z,2.07
2022-11-24T15:01:34.624Z,1.50
2022-11-24T15:06:36.571Z,1.63
2022-11-24T15:11:38.523Z,1.47
2022-11-24T15:16:40.361Z,1.97
2022-11-24T15:21:42.032Z,1.70
2022-11-24T15:26:44.017Z,1.60
2022-11-24T15:31:52.170Z,1.60
2022-11-24T15:36:55.323Z,1.87
2022-11-24T15:41:56.858Z,2.23
2022-11-24T15:46:58.399Z,2.00
2022-11-24T15:52:00.004Z,2.40
2022-11-24T15:57:01.672Z,2.13
2022-11-24T16:02:03.223Z,1.80
2022-11-24T16:07:06.710Z,2.27
2022-11-24T16:12:08.620Z,1.90
2022-11-24T16:17:10.100Z,2.70
2022-11-24T16:22:11.714Z,2.30
2022-11-24T16:27:13.293Z,1.93
2022-11-24T16:32:14.860Z,2.07
2022-11-24T16:37:16.584Z,2.20
2022-11-24T16:42:18.325Z,2.30
2022-11-24T16:47:20.448Z,2.47
2022-11-24T16:52:22.238Z,2.23
2022-11-24T16:57:23.847Z,2.40
2022-11-24T17:02:26.982Z,2.27
2022-11-24T17:07:28.705Z,2.03
2022-11-24T17:12:30.426Z,1.90
2022-11-24T17:17:31.992Z,2.07
2022-11-24T17:22:33.596Z,2.27
2022-11-24T17:27:35.477Z,1.70
2022-11-24T17:32:37.167Z,2.70
2022-11-24T17:37:38.872Z,2.43
2022-11-24T17:42:40.604Z,1.80
2022-11-24T17:47:42.351Z,2.30
2022-11-24T17:52:43.933Z,3.17
2022-11-24T17:57:45.473Z,2.13
2022-11-24T18:02:47.222Z,2.80
2022-11-24T18:07:48.971Z,2.50
2022-11-24T18:12:50.556Z,2.50
2022-11-24T18:17:52.477Z,3.13
2022-11-24T18:23:09.574Z,2.80
2022-11-24T18:28:11.099Z,2.70
2022-11-24T18:33:12.607Z,2.90
2022-11-24T18:38:14.132Z,2.50
2022-11-24T18:43:15.786Z,3.57
2022-11-24T18:48:17.551Z,3.00
2022-11-24T18:53:19.988Z,2.60
2022-11-24T18:58:21.584Z,2.40
2022-11-24T19:03:23.360Z,2.70
2022-11-24T19:08:25.035Z,2.83
2022-11-24T19:13:27.851Z,3.23
2022-11-24T19:18:29.960Z,6.50
2022-11-24T19:23:31.758Z,19.00
2022-11-24T19:28:33.884Z,22.77
2022-11-24T19:33:35.595Z,21.80
2022-11-24T19:38:37.749Z,14.53
2022-11-24T19:43:39.584Z,6.03
2022-11-24T19:48:43.221Z,4.47
2022-11-24T19:53:45.392Z,2.87
2022-11-24T19:58:48.090Z,3.20
2022-11-24T20:03:59.081Z,3.20
2022-11-24T20:09:01.224Z,3.30
2022-11-24T20:14:03.187Z,3.47
2022-11-24T20:19:07.537Z,6.27
2022-11-24T20:24:14.306Z,7.93
2022-11-24T20:29:16.745Z,25.20
2022-11-24T20:34:20.060Z,24.03
2022-11-24T20:39:26.556Z,15.03
2022-11-24T20:44:29.795Z,4.83
2022-11-24T20:49:31.429Z,3.80
2022-11-24T20:54:33.358Z,3.60
2022-11-24T20:59:35.094Z,3.43
2022-11-24T21:04:37.131Z,3.40
2022-11-24T21:09:38.900Z,3.80
2022-11-24T21:14:40.933Z,3.17
2022-11-24T21:19:42.571Z,2.90
2022-11-24T21:24:44.079Z,3.23
2022-11-24T21:29:45.554Z,3.30
2022-11-24T21:34:47.024Z,2.80
2022-11-24T21:39:48.783Z,3.03
2022-11-24T21:44:50.617Z,3.27
2022-11-24T21:49:52.621Z,3.03
2022-11-24T21:54:54.210Z,3.47
2022-11-24T21:59:56.208Z,3.40
2022-11-24T22:04:57.786Z,3.87
2022-11-24T22:09:59.531Z,4.13
2022-11-24T22:15:01.311Z,3.53
2022-11-24T22:20:03.030Z,3.50
2022-11-24T22:25:05.116Z,3.90
2022-11-24T22:30:07.502Z,3.63
2022-11-24T22:35:09.505Z,3.87
2022-11-24T22:40:11.222Z,3.50
2022-11-24T22:45:12.822Z,4.03
2022-11-24T22:50:14.465Z,4.03
2022-11-24T22:55:16.496Z,3.57
2022-11-24T23:00:18.236Z,4.03
2022-11-24T23:05:20.928Z,2.90
2022-11-24T23:10:22.752Z,3.50
2022-11-24T23:15:24.359Z,4.13
2022-11-24T23:20:25.910Z,3.37
2022-11-24T23:25:27.408Z,2.40
2022-11-24T23:30:28.893Z,2.90
2022-11-24T23:35:30.678Z,2.70
2022-11-24T23:40:32.290Z,2.57
2022-11-24T23:45:33.828Z,2.63
2022-11-24T23:50:36.485Z,2.90
2022-11-24T23:55:37.966Z,3.30
